createdAt,value
2018-07-04T07:38:14.738Z,26.97
2018-07-04T07:40:24.278Z,27.01
2018-07-04T07:41:24.261Z,27.00
2018-07-04T07:43:23.774Z,27.16
2018-07-04T07:44:23.718Z,27.08
2018-07-04T07:46:25.182Z,26.94
2018-07-04T07:47:25.734Z,27.01
2018-07-04T07:49:27.657Z,27.08
2018-07-04T07:50:26.711Z,27.16
2018-07-04T07:52:26.141Z,27.18
2018-07-04T07:53:26.372Z,27.11
2018-07-04T07:55:31.619Z,27.23
2018-07-04T07:56:30.659Z,27.21
2018-07-04T07:58:31.233Z,27.33
2018-07-04T07:59:31.630Z,27.42
2018-07-04T08:01:33.117Z,27.43
2018-07-04T08:02:32.299Z,27.52
2018-07-04T08:04:32.823Z,27.64
2018-07-04T08:05:32.837Z,27.76
2018-07-04T08:07:33.361Z,27.90
2018-07-04T08:08:34.281Z,27.94
2018-07-04T08:10:40.379Z,27.79
2018-07-04T08:11:38.462Z,27.80
2018-07-04T08:13:40.832Z,27.81
2018-07-04T08:14:39.803Z,27.68
2018-07-04T08:16:45.775Z,27.81
2018-07-04T08:17:43.773Z,27.79
2018-07-04T08:19:45.287Z,27.81
2018-07-04T08:20:44.742Z,27.75
2018-07-04T08:22:44.815Z,27.90
2018-07-04T08:23:46.714Z,27.93
2018-07-04T08:25:47.286Z,28.02
2018-07-04T08:26:45.424Z,28.12
2018-07-04T08:28:46.840Z,28.28
2018-07-04T08:29:45.923Z,28.42
2018-07-04T08:31:46.836Z,28.55
2018-07-04T08:32:46.468Z,28.68
2018-07-04T08:34:47.857Z,28.68
2018-07-04T08:35:46.895Z,28.75
2018-07-04T08:37:49.706Z,28.73
2018-07-04T08:38:47.520Z,28.79
2018-07-04T08:40:48.021Z,28.82
2018-07-04T08:41:49.069Z,28.91
2018-07-04T08:43:48.530Z,29.01
2018-07-04T08:44:48.543Z,29.03
2018-07-04T08:46:49.498Z,28.97
2018-07-04T08:47:50.113Z,29.11
2018-07-04T08:49:51.124Z,28.92
2018-07-04T08:50:49.452Z,28.88
2018-07-04T08:52:50.932Z,28.86
2018-07-04T08:53:50.017Z,28.86
2018-07-04T08:55:50.409Z,28.80
2018-07-04T08:56:50.363Z,28.78
2018-07-04T08:58:51.364Z,28.86
2018-07-04T08:59:50.895Z,28.88
2018-07-04T09:01:52.316Z,28.85
2018-07-04T09:02:52.366Z,28.78
2018-07-04T09:04:51.848Z,28.67
2018-07-04T09:05:52.043Z,28.48
2018-07-04T09:07:53.326Z,28.31
2018-07-04T09:08:53.886Z,28.17
2018-07-04T09:10:53.724Z,28.02
2018-07-04T09:11:53.844Z,27.94
2018-07-04T09:13:54.684Z,27.87
2018-07-04T09:14:54.205Z,27.69
2018-07-04T09:16:54.687Z,27.45
2018-07-04T09:17:54.690Z,27.27
2018-07-04T09:19:55.214Z,26.93
2018-07-04T09:20:57.119Z,26.75
2018-07-04T09:22:55.645Z,26.63
2018-07-04T09:23:55.657Z,26.47
2018-07-04T09:25:56.179Z,25.89
2018-07-04T09:26:57.172Z,25.81
2018-07-04T09:28:57.592Z,25.51
2018-07-04T09:29:57.613Z,25.45
2018-07-04T09:31:52.619Z,25.34
2018-07-04T09:32:52.572Z,25.08
2018-07-04T09:34:51.108Z,24.90
2018-07-04T09:35:50.573Z,24.77
2018-07-04T09:37:46.561Z,24.74
2018-07-04T09:38:46.603Z,24.63
2018-07-04T09:40:45.523Z,24.24
2018-07-04T09:41:44.516Z,24.18
2018-07-04T09:43:42.482Z,23.97
2018-07-04T09:44:42.536Z,23.96
2018-07-04T09:46:40.464Z,23.87
2018-07-04T09:47:40.492Z,23.89
2018-07-04T09:49:38.498Z,23.87
2018-07-04T09:50:38.933Z,23.87
2018-07-04T09:52:36.382Z,23.94
2018-07-04T09:53:37.399Z,24.00
2018-07-04T09:55:34.558Z,24.04
2018-07-04T09:56:35.378Z,24.00
2018-07-04T09:58:30.473Z,24.00
2018-07-04T09:59:30.486Z,24.03
2018-07-04T10:01:28.996Z,23.97
2018-07-04T10:02:28.993Z,23.94
2018-07-04T10:04:26.490Z,24.14
2018-07-04T10:05:27.313Z,24.21
2018-07-04T10:07:24.383Z,24.34
2018-07-04T10:08:25.370Z,24.54
2018-07-04T10:10:24.891Z,24.48
2018-07-04T10:11:24.850Z,24.55
2018-07-04T10:13:23.803Z,24.56
2018-07-04T10:14:22.782Z,24.59
2018-07-04T10:16:21.754Z,24.63
2018-07-04T10:17:20.750Z,24.69
2018-07-04T10:19:19.742Z,24.61
2018-07-04T10:20:18.707Z,24.66
2018-07-04T10:22:20.699Z,24.48
2018-07-04T10:23:19.166Z,24.42
2018-07-04T10:25:20.168Z,24.26
2018-07-04T10:26:19.740Z,24.26
2018-07-04T10:28:18.129Z,24.22
2018-07-04T10:29:18.699Z,24.07
2018-07-04T10:31:19.763Z,23.93
2018-07-04T10:32:19.348Z,23.93
2018-07-04T10:34:19.771Z,23.96
2018-07-04T10:35:19.736Z,23.99
2018-07-04T10:37:20.205Z,24.17
2018-07-04T10:38:21.086Z,24.24
2018-07-04T10:40:18.706Z,24.36
2018-07-04T10:41:18.181Z,24.40
2018-07-04T10:43:19.116Z,24.56
2018-07-04T10:44:18.658Z,24.69
2018-07-04T10:46:20.109Z,24.92
2018-07-04T10:47:19.611Z,25.02
2018-07-04T10:49:18.067Z,25.14
2018-07-04T10:50:18.094Z,25.27
2018-07-04T10:52:17.746Z,25.38
2018-07-04T10:53:18.235Z,25.44
2018-07-04T10:55:18.147Z,25.49
2018-07-04T10:56:18.659Z,25.75
2018-07-04T10:58:18.541Z,26.04
2018-07-04T10:59:18.699Z,26.19
2018-07-04T11:01:19.048Z,26.64
2018-07-04T11:02:20.017Z,26.57
2018-07-04T11:04:19.544Z,26.86
2018-07-04T11:05:19.584Z,26.94
2018-07-04T11:07:20.016Z,27.15
2018-07-04T11:08:21.084Z,27.16
2018-07-04T11:10:21.515Z,27.30
2018-07-04T11:11:20.518Z,27.30
2018-07-04T11:13:21.970Z,27.26
2018-07-04T11:14:22.086Z,27.23
2018-07-04T11:16:23.424Z,27.18
2018-07-04T11:17:22.468Z,27.18
2018-07-04T11:19:22.892Z,27.16
2018-07-04T11:20:22.982Z,27.16
2018-07-04T11:22:25.022Z,27.00
2018-07-04T11:23:24.318Z,27.09
2018-07-04T11:25:23.954Z,27.05
2018-07-04T11:26:23.822Z,27.11
2018-07-04T11:28:24.329Z,27.15
2018-07-04T11:29:25.844Z,27.19
2018-07-04T11:31:26.272Z,27.27
2018-07-04T11:32:25.588Z,27.38
2018-07-04T11:34:28.050Z,27.61
2018-07-04T11:35:28.070Z,27.61
2018-07-04T11:37:30.512Z,27.75
2018-07-04T11:38:27.676Z,27.90
2018-07-04T11:40:28.076Z,27.89
2018-07-04T11:41:28.917Z,28.01
2018-07-04T11:43:28.987Z,28.09
2018-07-04T11:44:28.495Z,28.14
2018-07-04T11:46:28.929Z,28.31
2018-07-04T11:47:28.940Z,28.31
2018-07-04T11:49:26.957Z,28.38
2018-07-04T11:50:27.920Z,28.30
2018-07-04T11:52:25.397Z,28.35
2018-07-04T11:53:24.915Z,28.27
2018-07-04T11:55:22.860Z,28.31
2018-07-04T11:56:22.876Z,28.35
2018-07-04T11:58:21.343Z,28.35
2018-07-04T11:59:20.969Z,28.20
2018-07-04T12:01:18.941Z,28.30
2018-07-04T12:02:18.928Z,28.38
2018-07-04T12:04:16.955Z,28.36
2018-07-04T12:05:16.939Z,28.36
2018-07-04T12:07:14.895Z,28.28
2018-07-04T12:08:16.874Z,28.24
2018-07-04T12:10:12.880Z,28.31
2018-07-04T12:11:12.784Z,28.38
2018-07-04T12:13:07.829Z,28.42
2018-07-04T12:14:07.857Z,28.41
2018-07-04T12:16:06.820Z,28.45
2018-07-04T12:17:05.837Z,28.30
2018-07-04T12:19:03.794Z,28.39
2018-07-04T12:20:03.792Z,28.30
2018-07-04T12:22:01.946Z,28.39
2018-07-04T12:23:01.970Z,28.38
2018-07-04T12:24:58.420Z,28.38
2018-07-04T12:25:57.927Z,28.31
2018-07-04T12:27:55.879Z,28.31
2018-07-04T12:28:55.874Z,28.31
2018-07-04T12:30:54.393Z,28.12
2018-07-04T12:31:54.899Z,28.09
2018-07-04T12:33:50.313Z,28.08
2018-07-04T12:34:50.851Z,28.12
2018-07-04T12:36:45.800Z,27.98
2018-07-04T12:37:45.802Z,28.02
2018-07-04T12:39:41.785Z,28.09
2018-07-04T12:40:42.781Z,28.02
2018-07-04T12:42:39.737Z,27.91
2018-07-04T12:43:40.253Z,27.89
2018-07-04T12:45:39.515Z,27.93
2018-07-04T12:46:35.714Z,27.98
2018-07-04T12:48:32.693Z,27.80
2018-07-04T12:49:31.644Z,27.83
2018-07-04T12:51:27.624Z,27.72
2018-07-04T12:52:27.623Z,27.74
2018-07-04T12:54:23.592Z,27.71
2018-07-04T12:55:23.574Z,27.69
2018-07-04T12:57:19.596Z,27.66
2018-07-04T12:58:19.534Z,27.65
2018-07-04T13:00:17.557Z,27.57
2018-07-04T13:01:17.529Z,27.48
2018-07-04T13:03:20.557Z,27.48
2018-07-04T13:04:21.422Z,27.48
2018-07-04T13:06:21.207Z,27.52
2018-07-04T13:07:20.138Z,27.59
2018-07-04T13:09:52.884Z,27.59
2018-07-04T13:12:51.495Z,27.53
2018-07-04T13:13:51.507Z,27.51
2018-07-04T13:15:48.622Z,27.45
2018-07-04T13:16:48.610Z,27.36
2018-07-04T13:18:49.593Z,27.23
2018-07-04T13:19:49.103Z,27.19
2018-07-04T13:21:49.568Z,27.05
2018-07-04T13:22:50.096Z,26.94
2018-07-04T13:24:51.015Z,26.68
2018-07-04T13:25:52.534Z,26.63
2018-07-04T13:27:48.083Z,26.27
2018-07-04T13:30:06.844Z,26.19
2018-07-04T13:31:07.842Z,26.07
2018-07-04T13:33:07.901Z,25.94
2018-07-04T13:34:07.379Z,25.91
2018-07-04T13:36:08.837Z,25.85
2018-07-04T13:37:08.822Z,25.81
2018-07-04T13:39:09.816Z,25.64
2018-07-04T13:40:09.917Z,25.56
2018-07-04T13:42:09.357Z,25.54
2018-07-04T13:43:08.931Z,25.47
2018-07-04T13:45:04.853Z,25.56
2018-07-04T13:46:05.834Z,25.57
2018-07-04T13:48:05.295Z,25.54
2018-07-04T13:49:05.305Z,25.52
2018-07-04T13:51:04.287Z,25.64
2018-07-04T13:52:04.280Z,25.71
2018-07-04T13:53:59.776Z,25.71
2018-07-04T13:54:59.274Z,25.69
2018-07-04T13:56:55.221Z,25.81
2018-07-04T13:57:55.241Z,25.81
2018-07-04T13:59:51.203Z,25.81
2018-07-04T14:00:52.210Z,25.86
2018-07-04T14:02:47.292Z,25.89
2018-07-04T14:05:06.162Z,26.01
2018-07-04T14:06:06.155Z,26.03
2018-07-04T14:08:03.234Z,26.03
2018-07-04T14:09:03.231Z,26.16
2018-07-04T14:11:01.709Z,26.12
2018-07-04T14:12:02.308Z,26.27
2018-07-04T14:13:57.576Z,26.27
2018-07-04T14:14:57.561Z,26.31
2018-07-04T14:16:55.563Z,26.39
2018-07-04T14:17:55.561Z,26.44
2018-07-04T14:19:53.526Z,26.44
2018-07-04T14:20:53.533Z,26.44
2018-07-04T14:22:49.513Z,26.63
2018-07-04T14:23:49.498Z,26.63
2018-07-04T14:25:49.464Z,26.71
2018-07-04T14:26:48.491Z,26.60
2018-07-04T14:28:47.175Z,26.68
2018-07-04T14:29:45.777Z,26.69
2018-07-04T14:31:44.219Z,26.69
2018-07-04T14:32:43.727Z,26.74
2018-07-04T14:34:44.748Z,26.67
2018-07-04T14:35:44.236Z,26.71
2018-07-04T14:37:42.001Z,26.69
2018-07-04T14:38:42.191Z,26.75
2018-07-04T14:40:39.156Z,26.64
2018-07-04T14:41:39.171Z,26.71
2018-07-04T14:43:37.656Z,26.82
2018-07-04T14:44:37.342Z,26.94
2018-07-04T14:46:33.312Z,26.93
2018-07-04T14:47:33.795Z,26.86
2018-07-04T14:49:29.269Z,26.91
2018-07-04T14:50:29.262Z,27.05
2018-07-04T14:52:27.812Z,27.18
2018-07-04T14:53:27.214Z,27.05
2018-07-04T14:55:26.704Z,27.15
2018-07-04T14:56:25.355Z,27.09
2018-07-04T14:58:24.342Z,27.15
2018-07-04T14:59:23.473Z,27.19
2018-07-04T15:01:20.946Z,27.15
2018-07-04T15:02:20.451Z,27.18
2018-07-04T15:04:19.996Z,27.26
2018-07-04T15:05:20.414Z,27.24
2018-07-04T15:07:18.416Z,27.26
2018-07-04T15:08:18.046Z,27.31
2018-07-04T15:10:30.517Z,27.21
2018-07-04T15:11:26.550Z,27.38
2018-07-04T15:13:49.424Z,27.33
2018-07-04T15:14:48.752Z,27.41
2018-07-04T15:16:46.041Z,27.38
2018-07-04T15:19:17.903Z,27.46
2018-07-04T15:20:07.267Z,27.46
2018-07-04T15:22:22.678Z,27.38
2018-07-04T15:23:08.181Z,27.38
2018-07-04T15:26:24.996Z,27.46
2018-07-04T15:27:24.131Z,27.62
2018-07-04T15:29:23.073Z,27.53
2018-07-04T15:30:22.134Z,27.53
2018-07-04T15:32:19.034Z,27.52
2018-07-04T15:33:19.065Z,27.55
2018-07-04T15:36:42.236Z,27.52
2018-07-04T15:37:19.208Z,27.55
2018-07-04T15:39:58.824Z,27.49
2018-07-04T15:40:55.806Z,27.62
2018-07-04T15:43:38.467Z,27.49
2018-07-04T15:44:14.796Z,27.59
2018-07-04T15:46:11.348Z,27.59
2018-07-04T15:47:10.994Z,27.52
2018-07-04T15:49:06.967Z,27.52
2018-07-04T15:50:06.949Z,27.52
2018-07-04T15:52:47.489Z,27.46
2018-07-04T15:53:43.735Z,27.52
2018-07-04T15:55:42.167Z,27.57
2018-07-04T15:56:41.676Z,27.64
2018-07-04T15:58:40.177Z,27.64
2018-07-04T15:59:40.227Z,27.52
2018-07-04T16:01:40.091Z,27.48
2018-07-04T16:02:40.113Z,27.49
2018-07-04T16:04:39.075Z,27.61
2018-07-04T16:05:38.166Z,27.48
2018-07-04T16:07:36.367Z,27.62
2018-07-04T16:08:36.289Z,27.52
2018-07-04T16:10:38.700Z,27.55
2018-07-04T16:11:38.147Z,27.57
2018-07-04T16:13:36.599Z,27.53
2018-07-04T16:14:37.278Z,27.51
2018-07-04T16:16:35.563Z,27.53
2018-07-04T16:17:35.092Z,27.55
2018-07-04T16:19:32.738Z,27.59
2018-07-04T16:20:33.289Z,27.61
2018-07-04T16:22:31.476Z,27.65
2018-07-04T16:23:31.422Z,27.69
2018-07-04T16:25:32.442Z,27.59
2018-07-04T16:26:31.859Z,27.51
2018-07-04T16:28:32.813Z,27.52
2018-07-04T16:29:33.235Z,27.51
2018-07-04T16:31:33.291Z,27.46
2018-07-04T16:32:33.757Z,27.55
2018-07-04T16:34:31.245Z,27.61
2018-07-04T16:35:31.734Z,27.68
2018-07-04T16:37:29.254Z,27.66
2018-07-04T16:38:28.730Z,27.59
2018-07-04T16:40:29.773Z,27.66
2018-07-04T16:41:29.204Z,27.68
2018-07-04T16:43:25.264Z,27.66
2018-07-04T16:44:25.225Z,27.64
2018-07-04T16:46:25.761Z,27.68
2018-07-04T16:47:25.695Z,27.68
2018-07-04T16:49:26.654Z,27.69
2018-07-04T16:50:26.231Z,27.65
2018-07-04T16:52:24.643Z,27.72
2018-07-04T16:53:24.193Z,27.75
2018-07-04T16:55:23.155Z,27.75
2018-07-04T16:56:25.242Z,27.71
2018-07-04T16:58:23.611Z,27.79
2018-07-04T16:59:23.601Z,27.76
2018-07-04T17:01:21.590Z,27.69
2018-07-04T17:02:22.054Z,27.66
2018-07-04T17:04:23.072Z,27.69
2018-07-04T17:05:22.197Z,27.71
2018-07-04T17:07:24.010Z,27.65
2018-07-04T17:08:22.708Z,27.57
2018-07-04T17:10:23.708Z,27.57
2018-07-04T17:11:23.211Z,27.52
2018-07-04T17:13:21.208Z,27.52
2018-07-04T17:14:21.174Z,27.46
2018-07-04T17:16:21.684Z,27.51
2018-07-04T17:17:21.745Z,27.43
2018-07-04T17:19:23.132Z,27.45
2018-07-04T17:20:22.092Z,27.49
2018-07-04T17:22:22.581Z,27.37
2018-07-04T17:23:22.634Z,27.24
2018-07-04T17:25:21.070Z,27.31
2018-07-04T17:26:20.547Z,27.34
2018-07-04T17:28:19.495Z,27.42
2018-07-04T17:29:19.421Z,27.34
2018-07-04T17:31:16.466Z,27.46
2018-07-04T17:32:17.380Z,27.42
2018-07-04T17:34:14.950Z,27.59
2018-07-04T17:35:14.618Z,27.65
2018-07-04T17:37:23.561Z,27.76
2018-07-04T17:38:21.064Z,27.75
2018-07-04T17:40:19.041Z,27.84
2018-07-04T17:41:20.041Z,27.84
2018-07-04T17:43:30.542Z,27.91
2018-07-04T17:44:30.566Z,27.89
2018-07-04T17:46:30.499Z,27.87
2018-07-04T17:47:30.259Z,27.90
2018-07-04T17:49:32.077Z,27.90
2018-07-04T17:50:30.603Z,27.86
2018-07-04T17:52:32.066Z,27.90
2018-07-04T17:53:32.194Z,27.84
2018-07-04T17:55:34.456Z,27.93
2018-07-04T17:56:29.977Z,27.91
2018-07-04T17:58:35.353Z,27.79
2018-07-04T17:59:36.868Z,27.90
2018-07-04T18:01:35.173Z,27.74
2018-07-04T18:02:35.172Z,27.79
2018-07-04T18:04:48.101Z,27.75
2018-07-04T18:08:16.761Z,27.81
2018-07-04T18:09:16.779Z,27.69
2018-07-04T18:11:35.463Z,27.71
2018-07-04T18:12:16.521Z,27.66
2018-07-04T18:14:22.470Z,27.62
2018-07-04T18:16:41.252Z,27.62
2018-07-04T18:17:42.244Z,27.52
2018-07-04T18:20:39.697Z,27.46
2018-07-04T18:22:37.871Z,27.26
2018-07-04T18:23:36.365Z,27.23
2018-07-04T18:25:33.392Z,27.11
2018-07-04T18:26:34.593Z,27.00
2018-07-04T18:28:32.459Z,26.91
2018-07-04T18:29:31.664Z,26.90
2018-07-04T18:31:32.092Z,26.82
2018-07-04T18:32:30.635Z,26.69
2018-07-04T18:34:43.297Z,26.61
2018-07-04T18:35:43.309Z,26.60
2018-07-04T18:38:05.843Z,26.52
2018-07-04T18:39:05.299Z,26.60
2018-07-04T18:41:05.109Z,26.49
2018-07-04T18:42:05.118Z,26.45
2018-07-04T18:44:15.572Z,26.50
2018-07-04T18:45:13.870Z,26.45
2018-07-04T18:47:20.285Z,26.47
2018-07-04T18:48:19.488Z,26.49
2018-07-04T18:50:20.752Z,26.45
2018-07-04T18:51:19.735Z,26.45
2018-07-04T18:53:17.053Z,26.52
2018-07-04T18:54:17.549Z,26.50
2018-07-04T18:56:28.084Z,26.56
2018-07-04T18:57:26.861Z,26.50
2018-07-04T18:59:50.434Z,26.39
2018-07-04T19:00:50.352Z,26.32
2018-07-04T19:02:48.356Z,26.24
2018-07-04T19:03:49.370Z,26.16
2018-07-04T19:05:45.337Z,26.23
2018-07-04T19:06:45.305Z,26.17
2018-07-04T19:08:42.815Z,26.15
2018-07-04T19:09:42.844Z,26.16
2018-07-04T19:11:40.734Z,26.09
2018-07-04T19:12:41.226Z,26.01
2018-07-04T19:14:40.348Z,26.01
2018-07-04T19:15:40.355Z,25.93
2018-07-04T19:17:37.501Z,25.93
2018-07-04T19:18:36.541Z,25.91
2018-07-04T19:20:35.981Z,25.93
2018-07-04T19:21:35.483Z,25.93
2018-07-04T19:23:35.372Z,25.89
2018-07-04T19:24:33.686Z,25.85
2018-07-04T19:26:31.588Z,25.84
2018-07-04T19:27:31.556Z,25.81
2018-07-04T19:29:31.534Z,25.75
2018-07-04T19:30:30.538Z,25.76
2018-07-04T19:32:28.210Z,25.67
2018-07-04T19:33:27.871Z,25.59
2018-07-04T19:35:26.791Z,25.60
2018-07-04T19:36:26.831Z,25.57
2018-07-04T19:38:24.262Z,25.59
2018-07-04T19:39:25.260Z,25.52
2018-07-04T19:41:22.727Z,25.47
2018-07-04T19:42:22.023Z,25.41
2018-07-04T19:44:19.341Z,25.52
2018-07-04T19:45:17.863Z,25.49
2018-07-04T19:47:13.844Z,25.51
2018-07-04T19:48:13.837Z,25.34
2018-07-04T19:50:09.807Z,25.38
2018-07-04T19:51:09.806Z,25.37
2018-07-04T19:53:05.760Z,25.26
2018-07-04T19:54:05.765Z,25.26
2018-07-04T19:56:01.778Z,25.27
2018-07-04T19:57:02.265Z,25.22
2018-07-04T19:58:57.667Z,25.11
2018-07-04T19:59:58.206Z,25.17
2018-07-04T20:01:53.687Z,25.02
2018-07-04T20:02:53.671Z,25.04
2018-07-04T20:04:49.654Z,25.01
2018-07-04T20:05:49.670Z,24.90
2018-07-04T20:07:46.640Z,24.92
2018-07-04T20:10:31.825Z,24.78
2018-07-04T20:12:45.178Z,24.78
2018-07-04T20:13:44.256Z,24.61
2018-07-04T20:16:10.324Z,24.58
2018-07-04T20:16:41.333Z,24.59
2018-07-04T20:18:36.310Z,24.54
2018-07-04T20:19:35.939Z,24.56
2018-07-04T20:21:32.498Z,24.56
2018-07-04T20:22:31.907Z,24.59
2018-07-04T20:24:27.854Z,24.51
2018-07-04T20:25:27.883Z,24.40
2018-07-04T20:27:23.855Z,24.42
2018-07-04T20:28:23.871Z,24.34
2018-07-04T20:30:20.854Z,24.26
2018-07-04T20:31:19.874Z,24.26
2018-07-04T20:33:18.371Z,24.18
2018-07-04T20:34:24.684Z,24.07
2018-07-04T20:36:14.194Z,24.02
2018-07-04T20:37:14.201Z,24.04
2018-07-04T20:39:11.169Z,24.09
2018-07-04T20:40:09.634Z,24.03
2018-07-04T20:42:06.607Z,24.02
2018-07-04T20:43:04.199Z,23.99
2018-07-04T20:45:00.210Z,23.89
2018-07-04T20:46:00.165Z,23.87
2018-07-04T20:47:56.681Z,23.85
2018-07-04T20:48:57.135Z,23.78
2018-07-04T20:50:54.090Z,23.72
2018-07-04T20:51:53.228Z,23.70
2018-07-04T20:53:55.629Z,23.74
2018-07-04T20:54:58.988Z,23.77
2018-07-04T20:56:55.206Z,23.82
2018-07-04T20:57:53.806Z,23.67
2018-07-04T20:59:49.789Z,23.82
2018-07-04T21:00:49.764Z,23.71
2018-07-04T21:02:46.741Z,23.70
2018-07-04T21:03:46.750Z,23.72
2018-07-04T21:05:43.223Z,23.72
2018-07-04T21:06:43.739Z,23.67
2018-07-04T21:08:39.604Z,23.70
2018-07-04T21:09:38.697Z,23.70
2018-07-04T21:11:35.662Z,23.64
2018-07-04T21:12:34.643Z,23.67
2018-07-04T21:14:32.527Z,23.72
2018-07-04T21:15:32.458Z,23.77
2018-07-04T21:17:30.644Z,23.77
2018-07-04T21:18:31.194Z,23.77
2018-07-04T21:20:29.860Z,23.67
2018-07-04T21:23:24.722Z,23.66
2018-07-04T21:24:25.904Z,23.66
2018-07-04T21:26:21.411Z,23.75
2018-07-04T21:27:32.424Z,23.70
2018-07-04T21:29:16.923Z,23.70
2018-07-04T21:30:16.440Z,23.62
2018-07-04T21:32:12.395Z,23.77
2018-07-04T21:33:12.393Z,23.66
2018-07-04T21:35:08.838Z,23.66
2018-07-04T21:36:08.342Z,23.63
2018-07-04T21:39:06.528Z,23.66
2018-07-04T21:41:23.488Z,23.67
2018-07-04T21:46:14.450Z,23.55
2018-07-04T21:47:14.473Z,23.55
2018-07-04T21:49:12.938Z,23.62
2018-07-04T21:51:50.943Z,23.56
2018-07-04T21:52:47.421Z,23.53
2018-07-04T21:55:52.884Z,23.52
2018-07-04T21:57:49.009Z,23.50
2018-07-04T22:00:51.059Z,23.47
2018-07-04T22:02:58.216Z,23.50
2018-07-04T22:03:58.482Z,23.41
2018-07-04T22:06:14.261Z,23.42
2018-07-04T22:07:06.680Z,23.38
2018-07-04T22:09:07.864Z,23.41
2018-07-04T22:10:07.871Z,23.32
2018-07-04T22:12:03.804Z,23.37
2018-07-04T22:13:03.825Z,23.29
2018-07-04T22:15:02.213Z,23.21
2018-07-04T22:15:59.806Z,23.28
2018-07-04T22:17:55.763Z,23.26
2018-07-04T22:18:55.765Z,23.28
2018-07-04T22:20:52.217Z,23.28
2018-07-04T22:21:51.775Z,23.26
2018-07-04T22:23:50.196Z,23.29
2018-07-04T22:24:50.840Z,23.24
2018-07-04T22:26:47.178Z,23.19
2018-07-04T22:27:46.201Z,23.16
2018-07-04T22:29:42.644Z,23.10
2018-07-04T22:30:42.675Z,23.07
2018-07-04T22:32:39.629Z,23.06
2018-07-04T22:33:40.135Z,22.99
2018-07-04T22:35:35.380Z,22.99
2018-07-04T22:36:35.388Z,22.97
2018-07-04T22:38:31.304Z,23.00
2018-07-04T22:39:31.856Z,22.94
2018-07-04T22:41:28.288Z,22.97
2018-07-04T22:42:28.292Z,22.92
2018-07-04T22:44:24.259Z,22.96
2018-07-04T22:45:23.514Z,22.78
2018-07-04T22:47:19.460Z,22.79
2018-07-04T22:48:19.449Z,22.66
2018-07-04T22:50:16.413Z,22.64
2018-07-04T22:51:15.928Z,22.64
2018-07-04T22:53:11.363Z,22.63
2018-07-04T22:54:11.870Z,22.61
2018-07-04T22:56:07.311Z,22.63
2018-07-04T22:57:07.321Z,22.57
2018-07-04T22:59:03.303Z,22.60
2018-07-04T23:00:03.779Z,22.67
2018-07-04T23:01:59.755Z,22.54
2018-07-04T23:02:59.230Z,22.57
2018-07-04T23:04:56.196Z,22.51
2018-07-04T23:05:55.255Z,22.48
2018-07-04T23:07:51.708Z,22.55
2018-07-04T23:08:51.199Z,22.52
2018-07-04T23:10:47.663Z,22.55
2018-07-04T23:11:47.204Z,22.55
2018-07-04T23:13:44.145Z,22.54
2018-07-04T23:14:43.154Z,22.54
2018-07-04T23:16:39.623Z,22.60
2018-07-04T23:17:39.117Z,22.54
2018-07-04T23:19:35.584Z,22.42
2018-07-04T23:20:35.588Z,22.46
2018-07-04T23:22:33.223Z,22.48
2018-07-04T23:23:33.229Z,22.48
2018-07-04T23:25:29.176Z,22.46
2018-07-04T23:26:29.197Z,22.39
2018-07-04T23:28:25.184Z,22.33
2018-07-04T23:31:21.122Z,22.20
2018-07-04T23:32:21.103Z,22.22
2018-07-04T23:34:17.097Z,22.27
2018-07-04T23:35:17.067Z,22.18
2018-07-04T23:37:14.050Z,22.14
2018-07-04T23:38:13.036Z,22.09
2018-07-04T23:40:11.427Z,22.05
2018-07-04T23:41:09.558Z,22.05
2018-07-04T23:43:05.962Z,22.04
2018-07-04T23:44:04.981Z,21.93
2018-07-04T23:46:03.449Z,21.93
2018-07-04T23:47:00.949Z,21.85
2018-07-04T23:48:56.908Z,21.89
2018-07-04T23:49:56.904Z,21.83
2018-07-04T23:51:53.856Z,21.78
2018-07-04T23:52:52.835Z,21.76
2018-07-04T23:54:49.811Z,21.76
2018-07-04T23:55:48.828Z,21.71
2018-07-04T23:57:44.788Z,21.58
2018-07-04T23:58:44.801Z,21.64
